AU-0075 weather

CLOSED Horse Hair Plain Aerodrome
Hotham, Victoria, Australia

Public forecast

Using degrees Celsius for public forecast. Weather courtesy of forecast.io.

METAR (pilot weather report)

Closest report is Albury Airport, 60.3 nm (111.7 km) NNW. Retrieved 2019/03/20 13:00 UTC (2 minutes ago):

YMAY 201300Z AUTO 00000KT 9999 // NCD 22/14 Q1013

TAF (pilot weather forecast)

Forecast is more than 6 hours old.

Closest forecast is Wangaratta Airport, 60.7 nm (112.4 km) NW. Retrieved 2019/03/20 02:03 UTC (11 hours ago):

TAF YWGT 200040Z 2002/2014 VRB05KT CAVOK PROB30 2010/2014 5000 FU